Time;durP1;ratioP1;P1;durP2;ratioP2;P2;SDS_P1;SDS_P2;PMS_P1;PMS_P2;Temp;Humidity;BMP_temperature;BMP_pressure;BME280_temperature;BME280_humidity;BME280_pressure;Samples;Min_cycle;Max_cycle;Signal;HPM_P1;HPM_P2
2022/12/07 00:01:48;;;;;;;24.07;13.00;;;-2.70;99.90;;;;;;5036748;28;20210;-62
2022/12/07 00:04:20;;;;;;;18.50;11.10;;;-2.70;99.90;;;;;;5027558;28;20206;-62
2022/12/07 00:06:50;;;;;;;19.67;10.50;;;-2.60;99.90;;;;;;5015008;28;20527;-61
2022/12/07 00:09:19;;;;;;;17.07;9.87;;;-2.70;99.90;;;;;;5052414;28;20197;-62
2022/12/07 00:11:49;;;;;;;17.23;10.73;;;-2.70;99.90;;;;;;5053979;28;20205;-61
2022/12/07 00:14:17;;;;;;;22.87;12.87;;;-2.70;99.90;;;;;;5053649;28;20220;-62
2022/12/07 00:16:45;;;;;;;18.23;11.37;;;-2.70;99.90;;;;;;5053751;28;20675;-61
2022/12/07 00:19:13;;;;;;;16.73;10.37;;;-2.60;99.90;;;;;;5025776;28;20634;-62
2022/12/07 00:21:41;;;;;;;16.10;9.90;;;-2.60;99.90;;;;;;5013691;28;20214;-61
2022/12/07 00:24:08;;;;;;;16.17;9.13;;;-2.60;99.90;;;;;;5013856;28;20206;-61
2022/12/07 05:20:24;;;;;;;24.17;13.73;;;-2.90;99.90;;;;;;5048116;28;20545;-63
2022/12/07 05:22:51;;;;;;;23.97;12.37;;;-2.30;99.90;;;;;;5048329;28;20689;-63
2022/12/07 05:25:17;;;;;;;24.83;13.80;;;-2.20;99.90;;;;;;5048719;28;20209;-62
2022/12/07 05:27:44;;;;;;;26.70;13.30;;;-2.20;99.90;;;;;;5048552;28;20205;-62
2022/12/07 05:30:12;;;;;;;22.27;12.73;;;-2.10;99.90;;;;;;5048413;28;20205;-62
2022/12/07 05:32:39;;;;;;;28.23;13.47;;;-2.10;99.90;;;;;;5048342;28;20212;-63
2022/12/07 05:35:06;;;;;;;26.07;14.33;;;-2.10;99.90;;;;;;5048325;28;20211;-62
2022/12/07 05:37:34;;;;;;;25.17;13.20;;;-2.10;99.90;;;;;;5048224;28;20211;-63
2022/12/07 05:40:01;;;;;;;23.27;12.47;;;-2.10;99.90;;;;;;5048348;28;20660;-62
2022/12/07 05:42:28;;;;;;;29.90;13.97;;;-2.10;99.90;;;;;;5048271;28;20304;-63
2022/12/07 05:44:54;;;;;;;24.97;13.03;;;-2.10;99.90;;;;;;5048293;28;20206;-62
2022/12/07 05:47:22;;;;;;;26.80;13.77;;;-2.00;99.90;;;;;;5048009;28;20197;-63
2022/12/07 05:49:49;;;;;;;24.33;13.47;;;-2.00;99.90;;;;;;5048090;28;20198;-62
2022/12/07 05:52:16;;;;;;;26.53;13.13;;;-2.00;99.90;;;;;;5047828;28;20205;-63
2022/12/07 05:54:44;;;;;;;22.20;12.80;;;-2.00;99.90;;;;;;5048117;28;20216;-63
2022/12/07 05:57:11;;;;;;;24.23;13.23;;;-2.00;99.90;;;;;;5047867;28;20202;-63
2022/12/07 05:59:37;;;;;;;27.20;13.77;;;-2.00;99.90;;;;;;5047826;28;20259;-62
2022/12/07 06:02:06;;;;;;;27.20;14.10;;;-2.00;99.90;;;;;;5047341;28;20208;-63
2022/12/07 06:04:34;;;;;;;28.77;15.23;;;-2.00;99.90;;;;;;5047884;28;20216;-62
2022/12/07 06:07:01;;;;;;;28.70;14.70;;;-2.00;99.90;;;;;;5047288;28;20202;-64
2022/12/07 06:09:29;;;;;;;25.30;13.17;;;-2.00;99.90;;;;;;5044889;28;20217;-62
2022/12/07 06:14:42;;;;;;;38.10;23.60;;;-2.00;99.90;;;;;;5038525;28;20192;-63
2022/12/07 10:22:58;;;;;;;38.80;22.20;;;-0.80;99.90;;;;;;5584091;22;22116;-64
2022/12/07 10:25:30;;;;;;;34.43;20.87;;;-0.80;99.90;;;;;;5107291;28;20208;-65
2022/12/07 10:28:02;;;;;;;38.43;21.67;;;-0.70;99.90;;;;;;5111039;28;20237;-64
2022/12/07 10:30:30;;;;;;;36.17;21.13;;;-0.60;99.90;;;;;;5094786;28;20647;-65
2022/12/07 10:32:57;;;;;;;33.93;19.07;;;-0.40;99.90;;;;;;5090237;28;20626;-65
2022/12/07 10:35:27;;;;;;;34.33;20.63;;;-0.40;99.90;;;;;;5103804;28;20671;-65
2022/12/07 10:37:57;;;;;;;44.37;22.87;;;-0.30;99.90;;;;;;5109587;28;20206;-64
2022/12/07 10:40:34;;;;;;;45.93;24.77;;;-0.20;99.90;;;;;;5108939;28;20202;-64
2022/12/07 10:43:18;;;;;;;43.07;23.80;;;-0.20;99.90;;;;;;5107733;28;20195;-63
2022/12/07 10:46:16;;;;;;;39.73;23.83;;;-0.10;99.90;;;;;;5103201;28;20543;-64
2022/12/07 10:48:55;;;;;;;42.00;23.27;;;-0.10;99.90;;;;;;5099607;28;20208;-64
2022/12/07 10:51:28;;;;;;;43.00;22.80;;;0.00;99.90;;;;;;5093903;28;20204;-64
2022/12/07 10:54:04;;;;;;;52.77;26.63;;;0.00;99.90;;;;;;5107140;28;20195;-65
2022/12/07 10:56:49;;;;;;;60.67;27.83;;;0.10;99.90;;;;;;5102649;28;20539;-63
2022/12/07 10:59:42;;;;;;;53.00;26.33;;;0.10;99.90;;;;;;5104746;28;20200;-64
2022/12/07 11:02:25;;;;;;;49.40;25.03;;;0.10;99.90;;;;;;5093581;28;20216;-64
2022/12/07 11:05:06;;;;;;;51.23;26.40;;;0.10;99.90;;;;;;5095243;28;20254;-63
2022/12/07 11:07:43;;;;;;;50.03;25.83;;;0.20;99.90;;;;;;5103992;28;20199;-63
2022/12/07 11:10:15;;;;;;;54.97;29.03;;;0.20;99.90;;;;;;5104575;28;20195;-64
2022/12/07 11:13:12;;;;;;;55.33;27.30;;;0.20;99.90;;;;;;5088039;28;20267;-63
2022/12/07 11:15:53;;;;;;;41.27;22.83;;;0.20;99.90;;;;;;5087779;28;20192;-64
2022/12/07 11:18:26;;;;;;;33.23;19.80;;;0.20;99.90;;;;;;5088204;28;20647;-63
2022/12/07 11:21:00;;;;;;;35.60;20.93;;;0.20;99.90;;;;;;5090790;28;20220;-62
2022/12/07 11:23:49;;;;;;;35.23;19.17;;;0.20;99.90;;;;;;5104697;28;20710;-63
2022/12/07 11:26:33;;;;;;;37.53;21.80;;;0.20;99.90;;;;;;5090551;28;20193;-63
2022/12/07 11:29:17;;;;;;;33.83;20.53;;;0.20;99.90;;;;;;5087707;28;20230;-64
2022/12/07 11:31:56;;;;;;;40.50;22.07;;;0.20;99.90;;;;;;5088205;28;20540;-63
2022/12/07 11:34:31;;;;;;;39.90;22.57;;;0.20;99.90;;;;;;5089741;28;20330;-64
2022/12/07 11:36:59;;;;;;;33.87;20.67;;;0.20;99.90;;;;;;5074499;28;20616;-63
2022/12/07 11:39:31;;;;;;;33.87;21.00;;;0.20;99.90;;;;;;5079419;28;20197;-64
2022/12/07 11:42:10;;;;;;;42.60;23.10;;;0.20;99.90;;;;;;5074368;28;20215;-63
2022/12/07 11:44:45;;;;;;;40.20;21.83;;;0.20;99.90;;;;;;5074117;28;20193;-63
2022/12/07 11:47:17;;;;;;;44.93;26.17;;;0.20;99.90;;;;;;5086164;28;20215;-63
2022/12/07 11:49:49;;;;;;;51.77;27.40;;;0.20;99.90;;;;;;5093926;28;20203;-63
2022/12/07 11:52:24;;;;;;;45.63;26.17;;;0.30;99.90;;;;;;5090698;28;20200;-63
2022/12/07 11:54:54;;;;;;;39.90;23.70;;;0.30;99.90;;;;;;5094050;28;20650;-64
2022/12/07 11:57:32;;;;;;;36.40;22.50;;;0.30;99.90;;;;;;5088326;28;20197;-63
2022/12/07 12:00:03;;;;;;;36.40;22.33;;;0.20;99.90;;;;;;5568100;22;20660;-65
2022/12/07 12:02:36;;;;;;;33.00;19.87;;;0.30;99.90;;;;;;5074136;28;20228;-67
2022/12/07 12:05:14;;;;;;;32.07;19.23;;;0.30;99.90;;;;;;5073527;28;20201;-65
2022/12/07 12:07:43;;;;;;;33.10;20.67;;;0.30;99.90;;;;;;5075345;28;20270;-65
2022/12/07 12:10:19;;;;;;;34.20;21.13;;;0.20;99.90;;;;;;5073749;28;20246;-66
2022/12/07 12:13:17;;;;;;;39.03;22.37;;;0.20;99.90;;;;;;5073816;28;20290;-65
2022/12/07 12:16:00;;;;;;;49.70;25.00;;;0.20;99.90;;;;;;5053505;28;20190;-65
2022/12/07 12:18:47;;;;;;;62.20;29.97;;;0.20;99.90;;;;;;5053625;28;20200;-66
2022/12/07 12:21:18;;;;;;;74.73;35.00;;;0.20;99.90;;;;;;5053742;28;20320;-66
2022/12/07 12:23:48;;;;;;;57.73;29.10;;;0.20;99.90;;;;;;5053388;28;20186;-66
2022/12/07 12:26:19;;;;;;;40.00;22.07;;;0.30;99.90;;;;;;5063792;28;20193;-66
2022/12/07 12:28:55;;;;;;;40.00;20.23;;;0.20;99.90;;;;;;5073524;28;20189;-66
2022/12/07 12:31:44;;;;;;;33.27;20.60;;;0.20;99.90;;;;;;5073476;28;20247;-64
2022/12/07 12:34:39;;;;;;;36.33;21.77;;;0.20;99.90;;;;;;5067283;28;20205;-65
2022/12/07 12:37:29;;;;;;;36.97;21.07;;;0.20;99.90;;;;;;5070081;28;20228;-66
2022/12/07 12:40:33;;;;;;;41.23;23.37;;;0.30;99.90;;;;;;5072795;28;20204;-66
2022/12/07 12:43:00;;;;;;;35.17;21.07;;;0.20;99.90;;;;;;5073421;28;20700;-66
2022/12/07 12:45:30;;;;;;;39.27;23.50;;;0.20;99.90;;;;;;5071824;28;20207;-67
2022/12/07 12:47:59;;;;;;;38.67;22.40;;;0.20;99.90;;;;;;5066515;28;20205;-66
2022/12/07 12:50:31;;;;;;;36.37;20.60;;;0.30;99.90;;;;;;5087519;28;20196;-65
2022/12/07 12:53:20;;;;;;;31.43;18.77;;;0.30;99.90;;;;;;5086448;28;20196;-69
2022/12/07 12:56:14;;;;;;;33.53;19.80;;;0.30;99.90;;;;;;5069107;28;20660;-68
2022/12/07 12:58:45;;;;;;;34.77;19.57;;;0.30;99.90;;;;;;5053438;28;20200;-67
2022/12/07 13:01:48;;;;;;;29.67;18.43;;;0.40;99.90;;;;;;5066544;28;20324;-66
2022/12/07 13:04:32;;;;;;;32.43;20.20;;;0.30;99.90;;;;;;5073107;28;20216;-66
2022/12/07 13:06:58;;;;;;;36.90;20.53;;;0.40;99.90;;;;;;5073160;28;20188;-67
2022/12/07 13:09:29;;;;;;;30.73;19.53;;;0.30;99.90;;;;;;5072888;28;20204;-65
2022/12/07 13:12:05;;;;;;;35.17;24.00;;;0.30;99.90;;;;;;5069722;28;20525;-66
2022/12/07 13:14:57;;;;;;;44.50;28.33;;;0.30;99.90;;;;;;5071558;28;20212;-66
2022/12/07 13:18:04;;;;;;;50.70;35.03;;;0.30;99.90;;;;;;5071245;28;20200;-65
2022/12/07 13:20:55;;;;;;;48.47;34.30;;;0.30;99.90;;;;;;5064172;28;20597;-66
2022/12/07 13:23:31;;;;;;;45.87;31.77;;;0.30;99.90;;;;;;5070918;28;20215;-65
2022/12/07 13:26:10;;;;;;;45.30;29.47;;;0.30;99.90;;;;;;5061707;28;20208;-65
2022/12/07 13:28:40;;;;;;;41.80;25.50;;;0.30;99.90;;;;;;5086563;28;20215;-65
2022/12/07 13:31:32;;;;;;;43.57;26.43;;;0.30;99.90;;;;;;5081138;28;21007;-65
2022/12/07 13:34:01;;;;;;;46.40;28.30;;;0.30;99.90;;;;;;5067162;28;20193;-65
2022/12/07 13:36:35;;;;;;;40.50;26.63;;;0.30;99.90;;;;;;5071317;28;20599;-66
2022/12/07 13:39:17;;;;;;;47.70;29.70;;;0.30;99.90;;;;;;5066768;28;20389;-65
2022/12/07 13:41:44;;;;;;;40.43;24.60;;;0.30;99.90;;;;;;5070613;28;20219;-65
2022/12/07 13:44:13;;;;;;;33.93;21.23;;;0.30;99.90;;;;;;5072289;28;20556;-64
2022/12/07 13:46:50;;;;;;;41.10;26.77;;;0.20;99.90;;;;;;5072065;28;20703;-65
2022/12/07 18:04:38;;;;;;;56.90;28.43;;;-0.60;99.90;;;;;;5579517;22;20602;-64
2022/12/07 18:07:05;;;;;;;73.77;34.50;;;-0.50;99.90;;;;;;5065794;28;20222;-66
2022/12/07 18:09:32;;;;;;;66.93;30.83;;;-0.50;99.90;;;;;;5068468;28;20228;-65
2022/12/07 18:11:59;;;;;;;68.50;30.10;;;-0.40;99.90;;;;;;5076810;28;20230;-64
2022/12/07 18:14:26;;;;;;;70.93;31.83;;;-0.30;99.90;;;;;;5066457;28;20212;-64
2022/12/07 18:16:53;;;;;;;71.27;33.23;;;-0.20;99.90;;;;;;5069881;28;20206;-66
2022/12/07 18:19:19;;;;;;;71.93;29.80;;;-0.10;99.90;;;;;;5068145;28;20209;-64
2022/12/07 18:21:48;;;;;;;71.90;31.80;;;0.00;99.90;;;;;;5070980;28;20207;-65
2022/12/07 18:24:17;;;;;;;61.80;30.33;;;0.10;99.90;;;;;;5067438;28;20217;-66
2022/12/07 18:26:46;;;;;;;58.70;27.30;;;0.10;99.90;;;;;;5070322;28;20211;-64
2022/12/07 18:29:15;;;;;;;55.13;24.67;;;0.20;99.90;;;;;;5067341;28;20239;-67
2022/12/07 18:31:42;;;;;;;37.37;20.60;;;0.20;99.90;;;;;;5075117;28;20204;-65
2022/12/07 18:34:12;;;;;;;43.47;22.27;;;0.30;99.90;;;;;;5062674;28;20650;-65
2022/12/07 18:36:41;;;;;;;41.03;21.27;;;0.30;99.90;;;;;;5071201;28;20196;-65
2022/12/07 18:39:09;;;;;;;48.90;27.10;;;0.40;99.90;;;;;;5065490;28;20318;-65
2022/12/07 18:41:36;;;;;;;42.87;24.60;;;0.40;99.90;;;;;;5069208;28;20196;-66
2022/12/07 18:44:04;;;;;;;36.40;20.83;;;0.40;99.90;;;;;;5068073;28;20576;-66
2022/12/07 18:46:31;;;;;;;36.83;21.30;;;0.50;99.90;;;;;;5067421;28;20205;-64
2022/12/07 18:48:59;;;;;;;38.43;21.60;;;0.50;99.90;;;;;;5078746;28;20207;-66
2022/12/07 18:51:28;;;;;;;43.03;24.80;;;0.50;99.90;;;;;;5067809;28;20213;-65
2022/12/07 18:53:56;;;;;;;43.57;26.43;;;0.50;99.90;;;;;;5067013;28;20197;-67
2022/12/07 18:56:25;;;;;;;42.00;22.93;;;0.50;99.90;;;;;;5065936;28;20284;-65
2022/12/07 19:01:39;;;;;;;33.97;19.87;;;0.50;99.90;;;;;;5065950;28;20691;-67
2022/12/07 19:04:06;;;;;;;33.77;20.43;;;0.60;99.90;;;;;;5078701;28;20243;-64
2022/12/07 19:06:33;;;;;;;35.00;20.73;;;0.60;99.90;;;;;;5061823;28;20650;-65
2022/12/07 19:09:00;;;;;;;32.17;19.40;;;0.60;99.90;;;;;;5061779;28;20215;-65
2022/12/07 19:14:16;;;;;;;27.50;17.33;;;0.70;99.90;;;;;;5065358;28;20217;-65
2022/12/07 19:16:44;;;;;;;31.23;18.97;;;0.70;99.90;;;;;;5041654;28;20278;-66
2022/12/07 19:19:11;;;;;;;33.73;19.47;;;0.70;99.90;;;;;;5053010;28;20662;-66
2022/12/07 19:21:37;;;;;;;32.10;20.73;;;0.70;99.90;;;;;;5033867;28;20202;-67
2022/12/07 19:24:05;;;;;;;37.87;22.23;;;0.70;99.90;;;;;;5034126;28;20226;-65
2022/12/07 19:26:33;;;;;;;38.17;23.00;;;0.70;99.90;;;;;;5033697;28;20674;-65
2022/12/07 19:29:00;;;;;;;41.53;24.33;;;0.70;99.90;;;;;;5051659;28;20213;-64
2022/12/07 19:31:27;;;;;;;46.20;24.27;;;0.70;99.90;;;;;;5053150;28;20214;-66
2022/12/07 19:33:54;;;;;;;72.47;33.60;;;0.80;99.90;;;;;;5055273;28;20445;-65
2022/12/07 19:36:21;;;;;;;62.77;28.37;;;0.80;99.90;;;;;;5055817;28;20216;-66
2022/12/07 19:38:49;;;;;;;66.30;30.20;;;0.80;99.90;;;;;;5057035;28;20233;-66
2022/12/07 19:43:59;;;;;;;46.47;24.33;;;0.80;99.90;;;;;;5041823;28;20291;-66
2022/12/07 19:46:26;;;;;;;41.87;22.97;;;0.90;99.90;;;;;;5054055;28;20201;-67
2022/12/07 19:48:53;;;;;;;35.03;21.40;;;0.90;99.90;;;;;;5053399;28;20208;-66
2022/12/07 19:51:20;;;;;;;38.20;23.27;;;0.90;99.90;;;;;;5053486;28;20209;-66
2022/12/07 19:53:47;;;;;;;35.13;20.90;;;0.80;99.90;;;;;;5056125;28;20209;-64
2022/12/07 19:56:15;;;;;;;35.43;20.83;;;0.90;99.90;;;;;;5033806;28;20202;-65
2022/12/07 19:58:42;;;;;;;26.67;18.43;;;0.90;99.90;;;;;;5048490;28;20221;-66
2022/12/07 20:01:10;;;;;;;25.73;17.90;;;0.80;99.90;;;;;;5052778;28;20221;-66
2022/12/07 20:03:37;;;;;;;29.13;17.87;;;0.90;99.90;;;;;;5045588;28;20585;-65
2022/12/07 20:06:08;;;;;;;25.33;16.20;;;0.80;99.90;;;;;;5047072;28;20236;-65
2022/12/07 20:08:35;;;;;;;22.77;15.07;;;0.90;99.90;;;;;;5042593;28;20236;-69
2022/12/07 20:13:27;;;;;;;22.40;15.47;;;0.90;99.90;;;;;;5053652;28;20194;-65
2022/12/07 20:13:49;;;;;;;22.47;15.03;;;0.90;99.90;;;;;;5054210;28;20252;-64
2022/12/07 20:16:17;;;;;;;21.07;14.47;;;0.90;99.90;;;;;;5034655;28;20209;-65
2022/12/07 20:18:44;;;;;;;21.77;15.07;;;0.90;99.90;;;;;;5054059;28;20202;-66
2022/12/07 20:21:11;;;;;;;24.33;16.53;;;0.90;99.90;;;;;;5053483;28;20219;-65
2022/12/07 20:23:38;;;;;;;20.67;14.30;;;0.90;99.90;;;;;;5052211;28;20224;-67
2022/12/07 20:26:07;;;;;;;21.17;14.00;;;0.90;99.90;;;;;;5052116;28;20231;-65
2022/12/07 20:28:34;;;;;;;20.77;14.47;;;0.90;99.90;;;;;;5055656;28;20225;-65
2022/12/07 20:31:01;;;;;;;22.40;14.00;;;0.90;99.90;;;;;;5034307;28;20202;-65
2022/12/07 20:33:30;;;;;;;22.47;14.93;;;0.90;99.90;;;;;;5038411;28;20197;-65
2022/12/07 20:35:59;;;;;;;24.13;15.97;;;0.90;99.90;;;;;;5053082;28;20207;-66
2022/12/07 20:38:27;;;;;;;22.13;15.07;;;0.90;99.90;;;;;;5053051;28;20209;-66
2022/12/07 20:40:58;;;;;;;22.57;15.43;;;0.90;99.90;;;;;;5052686;28;20202;-67
2022/12/07 20:43:25;;;;;;;22.17;14.77;;;0.90;99.90;;;;;;5052434;28;20221;-67
2022/12/07 20:45:52;;;;;;;27.10;16.70;;;0.90;99.90;;;;;;5052386;28;20201;-65
2022/12/07 20:48:19;;;;;;;24.50;15.77;;;0.90;99.90;;;;;;5052797;28;20220;-66
2022/12/07 20:50:47;;;;;;;27.70;16.27;;;0.90;99.90;;;;;;5052609;28;20208;-66
2022/12/07 20:53:13;;;;;;;22.80;14.67;;;0.90;99.90;;;;;;5052872;28;20205;-65
2022/12/07 20:55:40;;;;;;;27.17;16.10;;;0.90;99.90;;;;;;5052178;28;20213;-65
2022/12/07 20:58:07;;;;;;;24.20;15.33;;;0.90;99.90;;;;;;5052359;28;20211;-65
2022/12/07 21:00:35;;;;;;;22.80;14.67;;;0.90;99.90;;;;;;5047282;28;20225;-66
2022/12/07 21:03:02;;;;;;;24.50;15.03;;;1.00;99.90;;;;;;5063714;28;20295;-67
2022/12/07 21:05:29;;;;;;;23.40;14.70;;;1.00;99.90;;;;;;5069729;28;20602;-65
2022/12/07 21:07:57;;;;;;;23.73;14.80;;;1.00;99.90;;;;;;5050327;28;20204;-65
2022/12/07 21:10:24;;;;;;;23.53;15.00;;;1.00;99.90;;;;;;5056014;28;20212;-65
2022/12/07 21:12:51;;;;;;;25.90;15.87;;;1.10;99.90;;;;;;5051192;28;20210;-66
2022/12/07 21:15:18;;;;;;;23.47;14.83;;;1.10;99.90;;;;;;5052370;28;20665;-64
2022/12/07 21:17:44;;;;;;;23.97;14.80;;;1.10;99.90;;;;;;5055440;28;20215;-65
2022/12/07 21:20:11;;;;;;;24.10;15.23;;;1.10;99.90;;;;;;5058219;28;20197;-65
2022/12/07 21:22:38;;;;;;;23.73;14.70;;;1.10;99.90;;;;;;5051733;28;20280;-66
2022/12/07 21:25:07;;;;;;;31.70;16.73;;;1.10;99.90;;;;;;5052117;28;20221;-65
2022/12/07 21:27:34;;;;;;;29.73;17.07;;;1.10;99.90;;;;;;5051615;28;20209;-66
2022/12/07 21:30:01;;;;;;;25.57;15.37;;;1.10;99.90;;;;;;5051542;28;20201;-66
2022/12/07 21:32:28;;;;;;;30.53;17.80;;;1.10;99.90;;;;;;5054682;28;20200;-66
2022/12/07 21:34:54;;;;;;;35.60;17.13;;;1.10;99.90;;;;;;5052202;28;20200;-64
2022/12/07 21:37:21;;;;;;;28.07;15.57;;;1.10;99.90;;;;;;5062517;28;20197;-65
2022/12/07 21:39:48;;;;;;;29.63;16.10;;;1.10;99.90;;;;;;5051632;28;20201;-64
2022/12/07 21:42:16;;;;;;;38.37;16.27;;;1.20;99.90;;;;;;5055768;28;20201;-66
2022/12/07 21:44:43;;;;;;;33.60;16.50;;;1.20;99.90;;;;;;5050356;28;20229;-65
2022/12/07 21:47:10;;;;;;;28.53;16.00;;;1.20;99.90;;;;;;5052237;28;20229;-66
2022/12/07 21:49:36;;;;;;;53.63;20.43;;;1.20;99.90;;;;;;5032669;28;20217;-66
2022/12/07 21:52:03;;;;;;;50.10;18.53;;;1.20;99.90;;;;;;5042063;28;20206;-68
2022/12/07 21:54:30;;;;;;;43.40;18.20;;;1.20;99.90;;;;;;5031754;28;20209;-66
2022/12/07 21:56:57;;;;;;;68.40;20.17;;;1.30;99.90;;;;;;5042882;28;20208;-65
2022/12/07 21:59:25;;;;;;;38.20;17.33;;;1.30;99.90;;;;;;5051515;28;20205;-65
2022/12/07 22:01:52;;;;;;;41.77;17.40;;;1.30;99.90;;;;;;5051397;28;20216;-66
2022/12/07 22:04:22;;;;;;;112.70;22.40;;;1.30;99.90;;;;;;5050530;28;20233;-66
2022/12/07 22:06:49;;;;;;;149.40;23.70;;;1.30;99.90;;;;;;5034760;28;20220;-66
2022/12/07 22:09:17;;;;;;;95.83;20.97;;;1.30;99.90;;;;;;5052040;28;20216;-66
2022/12/07 22:11:44;;;;;;;36.63;16.87;;;1.20;99.90;;;;;;5051273;28;20686;-66
2022/12/07 22:16:57;;;;;;;43.03;16.27;;;1.30;99.90;;;;;;5051362;28;20235;-66
2022/12/07 22:19:24;;;;;;;140.43;25.63;;;1.30;99.90;;;;;;5051076;28;20204;-67
2022/12/07 22:21:51;;;;;;;57.47;17.40;;;1.30;99.90;;;;;;5051317;28;20217;-65
2022/12/07 22:24:18;;;;;;;76.63;20.40;;;1.30;99.90;;;;;;5050030;28;20225;-65
2022/12/07 22:26:45;;;;;;;133.47;24.00;;;1.20;99.90;;;;;;5050942;28;20202;-65
2022/12/07 22:29:12;;;;;;;142.57;26.47;;;1.20;99.90;;;;;;5050112;28;20209;-65
2022/12/07 22:31:40;;;;;;;174.67;30.40;;;1.20;99.90;;;;;;5053487;28;20209;-66
2022/12/07 22:34:13;;;;;;;96.67;23.63;;;1.20;99.90;;;;;;5043325;28;20279;-66
2022/12/07 22:36:40;;;;;;;86.87;23.20;;;1.20;99.90;;;;;;5051073;28;20288;-65
2022/12/07 22:39:08;;;;;;;164.47;36.60;;;1.20;99.90;;;;;;5050980;28;20209;-66
2022/12/07 22:41:35;;;;;;;133.13;26.73;;;1.20;99.90;;;;;;5048936;28;20601;-64
2022/12/07 22:44:01;;;;;;;64.17;21.10;;;1.20;99.90;;;;;;5050113;28;20221;-66
2022/12/07 22:46:28;;;;;;;107.70;25.97;;;1.20;99.90;;;;;;5050576;28;20198;-66
2022/12/07 22:48:55;;;;;;;118.63;24.30;;;1.20;99.90;;;;;;5051267;28;20561;-65
2022/12/07 22:51:25;;;;;;;72.07;22.03;;;1.20;99.90;;;;;;5054635;28;20810;-65
2022/12/07 22:53:53;;;;;;;67.70;18.80;;;1.20;99.90;;;;;;5054887;28;20656;-65
2022/12/07 22:56:20;;;;;;;83.87;23.07;;;1.20;99.90;;;;;;5054638;28;20204;-65
2022/12/07 22:58:48;;;;;;;53.90;20.37;;;1.30;99.90;;;;;;5054679;28;20213;-65
2022/12/07 23:01:17;;;;;;;78.50;23.43;;;1.30;99.90;;;;;;5054570;28;20206;-65
2022/12/07 23:03:44;;;;;;;72.97;23.23;;;1.30;99.90;;;;;;5054439;28;20209;-66
2022/12/07 23:06:14;;;;;;;76.90;22.47;;;1.30;99.90;;;;;;5054259;28;20716;-65
2022/12/07 23:08:42;;;;;;;57.30;22.43;;;1.30;99.90;;;;;;5054305;28;20687;-65
2022/12/07 23:13:30;;;;;;;53.77;21.07;;;1.30;99.90;;;;;;5053921;28;20201;-65
2022/12/07 23:13:57;;;;;;;37.97;19.33;;;1.30;99.90;;;;;;5054311;28;20189;-65
2022/12/07 23:16:23;;;;;;;30.00;17.63;;;1.40;99.90;;;;;;5053982;28;20201;-65
2022/12/07 23:18:50;;;;;;;37.43;18.77;;;1.50;99.90;;;;;;5054622;28;20205;-67
2022/12/07 23:21:17;;;;;;;34.60;18.30;;;1.50;99.90;;;;;;5054460;28;20227;-67
2022/12/07 23:23:45;;;;;;;33.97;17.50;;;1.60;99.90;;;;;;5054254;28;20205;-67
2022/12/07 23:26:13;;;;;;;29.67;16.33;;;1.60;99.90;;;;;;5047029;28;20205;-64
2022/12/07 23:28:40;;;;;;;34.90;16.23;;;1.70;99.90;;;;;;5052419;28;20205;-65
2022/12/07 23:31:08;;;;;;;27.37;15.13;;;1.70;99.90;;;;;;5054176;28;20205;-65
2022/12/07 23:33:35;;;;;;;22.77;13.80;;;1.70;99.90;;;;;;5054123;28;20226;-65
2022/12/07 23:36:10;;;;;;;23.07;13.30;;;1.80;99.90;;;;;;5053492;28;20703;-65
2022/12/07 23:38:37;;;;;;;25.33;13.37;;;1.80;99.90;;;;;;5054003;28;20211;-66
2022/12/07 23:41:08;;;;;;;22.53;12.93;;;1.80;99.90;;;;;;5053789;28;20215;-67
2022/12/07 23:43:35;;;;;;;23.33;12.63;;;1.80;99.90;;;;;;5054239;28;20194;-65
2022/12/07 23:46:02;;;;;;;24.87;12.80;;;1.80;99.90;;;;;;5053111;28;20569;-65
2022/12/07 23:48:29;;;;;;;31.80;14.10;;;1.90;99.90;;;;;;5054083;28;20791;-65
2022/12/07 23:50:57;;;;;;;34.43;14.60;;;1.90;99.90;;;;;;5052264;28;20201;-65
2022/12/07 23:53:25;;;;;;;37.90;15.77;;;1.90;99.90;;;;;;5053129;28;20201;-65
2022/12/07 23:55:52;;;;;;;28.60;14.67;;;1.80;99.90;;;;;;5053933;28;20202;-64
2022/12/07 23:58:20;;;;;;;40.80;16.43;;;1.80;99.90;;;;;;5053649;28;20201;-65
